Airfield :
LOGIN :

Register | Disclaimer

   EN    FR    IT 

 










Legend :    VFR   Marginal VFR   IFR   Intensive IFR   Very Intensive IFR
Visi :
Ceiling :
>= 8 km
>= 3000ft
5 to 8 km
1000 to 3000 ft
1500m to 5 km
500 to 1000 ft
800 to 1500m
200 to 500 ft
< 800m
< 200 ft
Symbols :   Thunderstorms  Fog  Heavy snow  Heavy precipitations  Wind > 20 kt
SIGMETs :     Misc.  Thunderstorms  Icing  Turbulence  Mountain Waves  Volcanic Ashes






- Airport Elevation : 242 ft
- IATA code : DUB


EIDW - Dublin

CURRENT METAR :
  • 281900Z 10007KT 070V150 9999 FEW024 SCT250 13/08 Q1026 NOSIG

EXPIRED METARs :
  • 281830Z 11007KT 9999 FEW026 SCT250 13/08 Q1026 NOSIG
  • 281800Z 08008KT 9999 FEW026 SCT090 14/08 Q1026 NOSIG
  • 281730Z 07009KT 030V090 9999 FEW026 SCT039 BKN090 15/08 Q1026 NOSIG
  • 281700Z 08008KT 050V110 9999 FEW026 SCT036 BKN043 16/07 Q1026 NOSIG

TAF COR TAF EIDW
Valid from the 28 at 18:00 until the 29 at 18:00 UTC


281709Z 2818/2918 07008KT 9999 FEW040
BECMG 2821/2823 VRB03KT
BECMG 2908/2910 05010KT



MET'MAP, your aeronautical weather chart ! - Copyright ORBIFLY December 2007 - Disclaimer

ORBIFLY MET'MAP TEAM :

Programming & Development : Alexandra Zaïnal
Original concept : Baudouin d'Aumeries
Technical & hardware support : Manuel Goepfert
Assistance : Marc-Olivier Méhu

Contact : metmap@orbifly.com




SOURCES & CREDITS :

   NOAA